sensor_id;sensor_type;location;lat;lon;timestamp;P1;durP1;ratioP1;P2;durP2;ratioP2
79308;SDS011;68767;53.078;7.386;2023-04-03T00:01:16;7.03;;;1.30;;
79308;SDS011;68767;53.078;7.386;2023-04-03T00:03:43;5.85;;;1.50;;
79308;SDS011;68767;53.078;7.386;2023-04-03T00:06:10;3.38;;;1.25;;
79308;SDS011;68767;53.078;7.386;2023-04-03T00:08:38;6.25;;;1.40;;
79308;SDS011;68767;53.078;7.386;2023-04-03T00:11:07;2.85;;;1.23;;
79308;SDS011;68767;53.078;7.386;2023-04-03T00:13:34;2.58;;;1.17;;
79308;SDS011;68767;53.078;7.386;2023-04-03T00:16:01;4.40;;;1.70;;
79308;SDS011;68767;53.078;7.386;2023-04-03T00:18:29;5.80;;;1.25;;
79308;SDS011;68767;53.078;7.386;2023-04-03T00:20:56;4.70;;;1.60;;
79308;SDS011;68767;53.078;7.386;2023-04-03T00:23:23;5.65;;;1.40;;
79308;SDS011;68767;53.078;7.386;2023-04-03T00:25:50;5.85;;;1.45;;
79308;SDS011;68767;53.078;7.386;2023-04-03T00:28:17;3.20;;;1.27;;
79308;SDS011;68767;53.078;7.386;2023-04-03T00:30:44;4.30;;;1.65;;
79308;SDS011;68767;53.078;7.386;2023-04-03T00:33:12;3.53;;;1.42;;
79308;SDS011;68767;53.078;7.386;2023-04-03T00:35:39;2.78;;;1.00;;
79308;SDS011;68767;53.078;7.386;2023-04-03T00:38:06;2.55;;;1.35;;
79308;SDS011;68767;53.078;7.386;2023-04-03T00:40:37;4.40;;;1.23;;
79308;SDS011;68767;53.078;7.386;2023-04-03T00:43:15;3.42;;;2.08;;
79308;SDS011;68767;53.078;7.386;2023-04-03T00:45:44;5.55;;;1.80;;
79308;SDS011;68767;53.078;7.386;2023-04-03T00:48:16;3.70;;;1.70;;
79308;SDS011;68767;53.078;7.386;2023-04-03T00:50:47;5.82;;;2.03;;
79308;SDS011;68767;53.078;7.386;2023-04-03T00:53:16;2.58;;;1.27;;
79308;SDS011;68767;53.078;7.386;2023-04-03T00:55:46;9.23;;;1.83;;
79308;SDS011;68767;53.078;7.386;2023-04-03T00:58:15;4.28;;;1.40;;
79308;SDS011;68767;53.078;7.386;2023-04-03T01:00:46;3.50;;;1.73;;
79308;SDS011;68767;53.078;7.386;2023-04-03T01:03:19;4.90;;;1.63;;
79308;SDS011;68767;53.078;7.386;2023-04-03T01:05:47;4.28;;;2.00;;
79308;SDS011;68767;53.078;7.386;2023-04-03T01:08:13;4.72;;;1.52;;
79308;SDS011;68767;53.078;7.386;2023-04-03T01:10:40;8.82;;;2.40;;
79308;SDS011;68767;53.078;7.386;2023-04-03T01:13:21;4.55;;;1.80;;
79308;SDS011;68767;53.078;7.386;2023-04-03T01:15:53;6.38;;;1.45;;
79308;SDS011;68767;53.078;7.386;2023-04-03T01:18:20;5.55;;;1.60;;
79308;SDS011;68767;53.078;7.386;2023-04-03T01:23:38;6.10;;;1.92;;
79308;SDS011;68767;53.078;7.386;2023-04-03T01:26:19;4.95;;;1.60;;
79308;SDS011;68767;53.078;7.386;2023-04-03T01:28:46;4.78;;;1.60;;
79308;SDS011;68767;53.078;7.386;2023-04-03T01:33:52;3.97;;;1.65;;
79308;SDS011;68767;53.078;7.386;2023-04-03T01:36:21;8.25;;;1.90;;
79308;SDS011;68767;53.078;7.386;2023-04-03T01:38:51;5.68;;;1.90;;
79308;SDS011;68767;53.078;7.386;2023-04-03T01:41:19;4.25;;;1.75;;
79308;SDS011;68767;53.078;7.386;2023-04-03T01:43:47;4.85;;;1.80;;
79308;SDS011;68767;53.078;7.386;2023-04-03T01:46:15;5.07;;;1.70;;
79308;SDS011;68767;53.078;7.386;2023-04-03T01:48:43;4.95;;;1.70;;
79308;SDS011;68767;53.078;7.386;2023-04-03T01:51:09;9.93;;;2.00;;
79308;SDS011;68767;53.078;7.386;2023-04-03T01:53:36;8.82;;;2.53;;
79308;SDS011;68767;53.078;7.386;2023-04-03T01:56:04;6.10;;;1.90;;
79308;SDS011;68767;53.078;7.386;2023-04-03T01:58:31;9.63;;;1.90;;
79308;SDS011;68767;53.078;7.386;2023-04-03T02:00:58;6.70;;;1.70;;
79308;SDS011;68767;53.078;7.386;2023-04-03T02:03:24;4.88;;;1.98;;
79308;SDS011;68767;53.078;7.386;2023-04-03T02:05:51;9.55;;;2.33;;
79308;SDS011;68767;53.078;7.386;2023-04-03T02:08:18;7.30;;;1.90;;
79308;SDS011;68767;53.078;7.386;2023-04-03T02:10:48;6.05;;;1.90;;
79308;SDS011;68767;53.078;7.386;2023-04-03T02:13:16;4.72;;;2.03;;
79308;SDS011;68767;53.078;7.386;2023-04-03T02:15:43;9.60;;;2.65;;
79308;SDS011;68767;53.078;7.386;2023-04-03T02:18:11;6.78;;;2.10;;
79308;SDS011;68767;53.078;7.386;2023-04-03T02:20:38;3.78;;;1.70;;
79308;SDS011;68767;53.078;7.386;2023-04-03T02:23:05;5.80;;;2.13;;
79308;SDS011;68767;53.078;7.386;2023-04-03T02:25:32;5.40;;;1.77;;
79308;SDS011;68767;53.078;7.386;2023-04-03T02:28:01;5.07;;;2.30;;
79308;SDS011;68767;53.078;7.386;2023-04-03T02:30:28;8.30;;;2.10;;
79308;SDS011;68767;53.078;7.386;2023-04-03T02:32:55;8.18;;;1.88;;
79308;SDS011;68767;53.078;7.386;2023-04-03T02:35:22;5.30;;;1.80;;
79308;SDS011;68767;53.078;7.386;2023-04-03T02:37:49;4.72;;;1.80;;
79308;SDS011;68767;53.078;7.386;2023-04-03T02:40:15;8.20;;;2.03;;
79308;SDS011;68767;53.078;7.386;2023-04-03T02:42:42;4.85;;;1.60;;
79308;SDS011;68767;53.078;7.386;2023-04-03T02:45:09;10.02;;;2.33;;
79308;SDS011;68767;53.078;7.386;2023-04-03T02:47:36;12.32;;;2.70;;
79308;SDS011;68767;53.078;7.386;2023-04-03T02:50:03;3.30;;;1.80;;
79308;SDS011;68767;53.078;7.386;2023-04-03T02:52:30;4.38;;;1.98;;
79308;SDS011;68767;53.078;7.386;2023-04-03T02:54:57;7.32;;;2.35;;
79308;SDS011;68767;53.078;7.386;2023-04-03T02:57:23;10.77;;;2.88;;
79308;SDS011;68767;53.078;7.386;2023-04-03T02:59:50;6.72;;;2.30;;
79308;SDS011;68767;53.078;7.386;2023-04-03T03:02:17;10.07;;;2.22;;
79308;SDS011;68767;53.078;7.386;2023-04-03T03:04:44;8.23;;;2.63;;
79308;SDS011;68767;53.078;7.386;2023-04-03T03:07:11;7.03;;;1.92;;
79308;SDS011;68767;53.078;7.386;2023-04-03T03:09:37;5.82;;;2.42;;
79308;SDS011;68767;53.078;7.386;2023-04-03T03:12:04;6.50;;;2.35;;
79308;SDS011;68767;53.078;7.386;2023-04-03T03:14:31;9.13;;;2.40;;
79308;SDS011;68767;53.078;7.386;2023-04-03T03:16:58;11.57;;;2.83;;
79308;SDS011;68767;53.078;7.386;2023-04-03T03:19:24;7.45;;;2.42;;
79308;SDS011;68767;53.078;7.386;2023-04-03T03:21:51;7.07;;;2.30;;
79308;SDS011;68767;53.078;7.386;2023-04-03T03:24:18;5.82;;;2.50;;
79308;SDS011;68767;53.078;7.386;2023-04-03T03:26:45;7.78;;;3.20;;
79308;SDS011;68767;53.078;7.386;2023-04-03T03:29:12;7.50;;;2.17;;
79308;SDS011;68767;53.078;7.386;2023-04-03T03:31:38;5.78;;;2.50;;
79308;SDS011;68767;53.078;7.386;2023-04-03T03:34:05;9.88;;;2.97;;
79308;SDS011;68767;53.078;7.386;2023-04-03T03:36:32;9.02;;;3.10;;
79308;SDS011;68767;53.078;7.386;2023-04-03T03:38:59;10.32;;;2.70;;
79308;SDS011;68767;53.078;7.386;2023-04-03T03:41:25;7.97;;;3.05;;
79308;SDS011;68767;53.078;7.386;2023-04-03T03:43:52;8.27;;;2.78;;
79308;SDS011;68767;53.078;7.386;2023-04-03T03:46:19;6.28;;;2.67;;
79308;SDS011;68767;53.078;7.386;2023-04-03T03:48:46;8.32;;;2.67;;
79308;SDS011;68767;53.078;7.386;2023-04-03T03:51:12;10.32;;;3.28;;
79308;SDS011;68767;53.078;7.386;2023-04-03T03:53:39;14.15;;;3.13;;
79308;SDS011;68767;53.078;7.386;2023-04-03T03:56:06;12.20;;;2.92;;
79308;SDS011;68767;53.078;7.386;2023-04-03T03:58:33;10.00;;;2.70;;
79308;SDS011;68767;53.078;7.386;2023-04-03T04:01:00;10.18;;;2.63;;
79308;SDS011;68767;53.078;7.386;2023-04-03T04:03:32;9.27;;;3.05;;
79308;SDS011;68767;53.078;7.386;2023-04-03T04:05:59;7.82;;;3.17;;
79308;SDS011;68767;53.078;7.386;2023-04-03T04:08:25;7.88;;;2.70;;
79308;SDS011;68767;53.078;7.386;2023-04-03T04:10:52;8.57;;;2.60;;
79308;SDS011;68767;53.078;7.386;2023-04-03T04:13:19;9.95;;;3.00;;
79308;SDS011;68767;53.078;7.386;2023-04-03T04:15:47;6.18;;;2.53;;
79308;SDS011;68767;53.078;7.386;2023-04-03T04:18:13;11.98;;;2.83;;
79308;SDS011;68767;53.078;7.386;2023-04-03T04:20:40;15.38;;;3.17;;
79308;SDS011;68767;53.078;7.386;2023-04-03T04:23:07;9.25;;;2.85;;
79308;SDS011;68767;53.078;7.386;2023-04-03T04:25:34;4.68;;;2.20;;
79308;SDS011;68767;53.078;7.386;2023-04-03T04:28:04;10.70;;;3.40;;
79308;SDS011;68767;53.078;7.386;2023-04-03T04:30:31;6.85;;;2.88;;
79308;SDS011;68767;53.078;7.386;2023-04-03T04:32:58;6.50;;;2.50;;
79308;SDS011;68767;53.078;7.386;2023-04-03T04:35:25;10.85;;;2.35;;
79308;SDS011;68767;53.078;7.386;2023-04-03T04:37:54;10.82;;;3.17;;
79308;SDS011;68767;53.078;7.386;2023-04-03T04:40:21;11.57;;;2.95;;
79308;SDS011;68767;53.078;7.386;2023-04-03T04:42:48;6.65;;;2.45;;
79308;SDS011;68767;53.078;7.386;2023-04-03T04:45:14;9.02;;;2.83;;
79308;SDS011;68767;53.078;7.386;2023-04-03T04:47:41;11.35;;;3.05;;
79308;SDS011;68767;53.078;7.386;2023-04-03T04:50:08;8.75;;;2.60;;
79308;SDS011;68767;53.078;7.386;2023-04-03T04:52:36;12.32;;;3.40;;
79308;SDS011;68767;53.078;7.386;2023-04-03T04:55:02;7.68;;;2.72;;
79308;SDS011;68767;53.078;7.386;2023-04-03T04:57:30;12.13;;;2.47;;
79308;SDS011;68767;53.078;7.386;2023-04-03T04:59:57;6.97;;;2.70;;
79308;SDS011;68767;53.078;7.386;2023-04-03T05:02:23;13.68;;;2.60;;
79308;SDS011;68767;53.078;7.386;2023-04-03T05:04:50;8.55;;;3.20;;
79308;SDS011;68767;53.078;7.386;2023-04-03T05:07:18;6.60;;;2.40;;
79308;SDS011;68767;53.078;7.386;2023-04-03T05:09:45;13.82;;;5.03;;
79308;SDS011;68767;53.078;7.386;2023-04-03T05:12:11;12.25;;;2.75;;
79308;SDS011;68767;53.078;7.386;2023-04-03T05:14:38;8.55;;;2.92;;
79308;SDS011;68767;53.078;7.386;2023-04-03T05:17:05;10.32;;;2.58;;
79308;SDS011;68767;53.078;7.386;2023-04-03T05:19:31;9.73;;;2.95;;
79308;SDS011;68767;53.078;7.386;2023-04-03T05:21:58;10.57;;;2.85;;
79308;SDS011;68767;53.078;7.386;2023-04-03T05:24:25;10.68;;;3.28;;
79308;SDS011;68767;53.078;7.386;2023-04-03T05:26:52;14.23;;;3.88;;
79308;SDS011;68767;53.078;7.386;2023-04-03T05:29:19;7.03;;;2.97;;
79308;SDS011;68767;53.078;7.386;2023-04-03T05:31:46;5.45;;;2.85;;
79308;SDS011;68767;53.078;7.386;2023-04-03T05:34:12;12.27;;;3.88;;
79308;SDS011;68767;53.078;7.386;2023-04-03T05:36:39;12.15;;;3.42;;
79308;SDS011;68767;53.078;7.386;2023-04-03T05:39:06;6.57;;;2.92;;
79308;SDS011;68767;53.078;7.386;2023-04-03T05:41:33;13.10;;;3.78;;
79308;SDS011;68767;53.078;7.386;2023-04-03T05:43:59;8.30;;;3.13;;
79308;SDS011;68767;53.078;7.386;2023-04-03T05:46:26;16.38;;;3.65;;
79308;SDS011;68767;53.078;7.386;2023-04-03T05:48:53;7.45;;;2.88;;
79308;SDS011;68767;53.078;7.386;2023-04-03T05:51:24;7.72;;;2.90;;
79308;SDS011;68767;53.078;7.386;2023-04-03T05:54:14;11.27;;;3.28;;
79308;SDS011;68767;53.078;7.386;2023-04-03T05:56:45;9.02;;;2.53;;
79308;SDS011;68767;53.078;7.386;2023-04-03T05:59:11;15.13;;;3.75;;
79308;SDS011;68767;53.078;7.386;2023-04-03T06:01:38;14.90;;;3.42;;
79308;SDS011;68767;53.078;7.386;2023-04-03T06:04:05;6.75;;;2.90;;
79308;SDS011;68767;53.078;7.386;2023-04-03T06:06:45;15.38;;;3.22;;
79308;SDS011;68767;53.078;7.386;2023-04-03T06:09:20;10.30;;;3.13;;
79308;SDS011;68767;53.078;7.386;2023-04-03T06:11:49;12.95;;;3.30;;
79308;SDS011;68767;53.078;7.386;2023-04-03T06:14:16;8.30;;;3.45;;
79308;SDS011;68767;53.078;7.386;2023-04-03T06:16:43;15.05;;;3.15;;
79308;SDS011;68767;53.078;7.386;2023-04-03T06:19:10;10.25;;;2.75;;
79308;SDS011;68767;53.078;7.386;2023-04-03T06:21:38;12.88;;;3.08;;
79308;SDS011;68767;53.078;7.386;2023-04-03T06:24:05;8.07;;;2.90;;
79308;SDS011;68767;53.078;7.386;2023-04-03T06:26:33;10.80;;;3.28;;
79308;SDS011;68767;53.078;7.386;2023-04-03T06:29:00;7.13;;;2.90;;
79308;SDS011;68767;53.078;7.386;2023-04-03T06:31:28;7.88;;;3.00;;
79308;SDS011;68767;53.078;7.386;2023-04-03T06:33:56;12.80;;;3.50;;
79308;SDS011;68767;53.078;7.386;2023-04-03T06:36:22;10.60;;;3.00;;
79308;SDS011;68767;53.078;7.386;2023-04-03T06:38:49;11.63;;;3.03;;
79308;SDS011;68767;53.078;7.386;2023-04-03T06:41:16;8.00;;;2.92;;
79308;SDS011;68767;53.078;7.386;2023-04-03T06:43:44;5.60;;;2.60;;
79308;SDS011;68767;53.078;7.386;2023-04-03T06:46:18;9.85;;;2.70;;
79308;SDS011;68767;53.078;7.386;2023-04-03T06:48:47;14.23;;;3.30;;
79308;SDS011;68767;53.078;7.386;2023-04-03T06:53:45;6.53;;;2.72;;
79308;SDS011;68767;53.078;7.386;2023-04-03T06:56:13;7.68;;;3.17;;
79308;SDS011;68767;53.078;7.386;2023-04-03T06:58:41;10.98;;;3.28;;
79308;SDS011;68767;53.078;7.386;2023-04-03T07:01:09;15.88;;;4.30;;
79308;SDS011;68767;53.078;7.386;2023-04-03T07:03:37;10.88;;;2.92;;
79308;SDS011;68767;53.078;7.386;2023-04-03T07:06:05;8.65;;;3.05;;
79308;SDS011;68767;53.078;7.386;2023-04-03T07:08:33;12.45;;;3.33;;
79308;SDS011;68767;53.078;7.386;2023-04-03T07:11:01;11.75;;;2.90;;
79308;SDS011;68767;53.078;7.386;2023-04-03T07:13:28;10.10;;;3.90;;
79308;SDS011;68767;53.078;7.386;2023-04-03T07:15:55;10.68;;;3.22;;
79308;SDS011;68767;53.078;7.386;2023-04-03T07:18:21;15.43;;;2.92;;
79308;SDS011;68767;53.078;7.386;2023-04-03T07:20:48;9.60;;;3.15;;
79308;SDS011;68767;53.078;7.386;2023-04-03T07:23:15;12.88;;;2.72;;
79308;SDS011;68767;53.078;7.386;2023-04-03T07:25:45;5.38;;;2.55;;
79308;SDS011;68767;53.078;7.386;2023-04-03T07:28:13;14.65;;;2.47;;
79308;SDS011;68767;53.078;7.386;2023-04-03T07:30:47;13.25;;;2.85;;
79308;SDS011;68767;53.078;7.386;2023-04-03T07:33:26;5.90;;;2.25;;
79308;SDS011;68767;53.078;7.386;2023-04-03T07:35:52;8.13;;;2.25;;
79308;SDS011;68767;53.078;7.386;2023-04-03T07:38:19;9.02;;;2.17;;
79308;SDS011;68767;53.078;7.386;2023-04-03T07:40:49;8.20;;;1.75;;
79308;SDS011;68767;53.078;7.386;2023-04-03T07:43:17;7.18;;;2.60;;
79308;SDS011;68767;53.078;7.386;2023-04-03T07:45:46;6.82;;;1.90;;
79308;SDS011;68767;53.078;7.386;2023-04-03T07:48:17;10.52;;;2.30;;
79308;SDS011;68767;53.078;7.386;2023-04-03T07:50:47;9.55;;;2.33;;
79308;SDS011;68767;53.078;7.386;2023-04-03T07:53:14;5.47;;;2.65;;
79308;SDS011;68767;53.078;7.386;2023-04-03T07:55:42;9.52;;;2.03;;
79308;SDS011;68767;53.078;7.386;2023-04-03T07:58:12;9.48;;;2.13;;
79308;SDS011;68767;53.078;7.386;2023-04-03T08:00:44;8.15;;;1.63;;
79308;SDS011;68767;53.078;7.386;2023-04-03T08:03:11;4.68;;;1.80;;
79308;SDS011;68767;53.078;7.386;2023-04-03T08:05:43;5.90;;;1.67;;
79308;SDS011;68767;53.078;7.386;2023-04-03T08:08:11;5.63;;;1.92;;
79308;SDS011;68767;53.078;7.386;2023-04-03T08:10:40;5.90;;;1.90;;
79308;SDS011;68767;53.078;7.386;2023-04-03T08:13:07;9.48;;;2.65;;
79308;SDS011;68767;53.078;7.386;2023-04-03T08:15:34;8.60;;;2.03;;
79308;SDS011;68767;53.078;7.386;2023-04-03T08:18:03;12.20;;;1.00;;
79308;SDS011;68767;53.078;7.386;2023-04-03T08:20:30;4.85;;;1.75;;
79308;SDS011;68767;53.078;7.386;2023-04-03T08:22:57;3.97;;;1.67;;
79308;SDS011;68767;53.078;7.386;2023-04-03T08:25:24;8.90;;;2.17;;
79308;SDS011;68767;53.078;7.386;2023-04-03T08:27:51;5.72;;;1.90;;
79308;SDS011;68767;53.078;7.386;2023-04-03T08:30:17;5.70;;;1.80;;
79308;SDS011;68767;53.078;7.386;2023-04-03T08:32:44;3.88;;;1.48;;
79308;SDS011;68767;53.078;7.386;2023-04-03T08:35:11;3.97;;;1.50;;
79308;SDS011;68767;53.078;7.386;2023-04-03T08:37:39;5.18;;;1.55;;
79308;SDS011;68767;53.078;7.386;2023-04-03T08:40:07;5.22;;;1.67;;
79308;SDS011;68767;53.078;7.386;2023-04-03T08:45:45;5.07;;;1.88;;
79308;SDS011;68767;53.078;7.386;2023-04-03T08:51:17;9.30;;;1.55;;
79308;SDS011;68767;53.078;7.386;2023-04-03T08:53:51;7.70;;;2.10;;
79308;SDS011;68767;53.078;7.386;2023-04-03T08:56:24;5.15;;;1.45;;
79308;SDS011;68767;53.078;7.386;2023-04-03T08:58:55;2.22;;;1.05;;
79308;SDS011;68767;53.078;7.386;2023-04-03T09:01:28;6.88;;;1.70;;
79308;SDS011;68767;53.078;7.386;2023-04-03T09:04:01;3.33;;;1.75;;
79308;SDS011;68767;53.078;7.386;2023-04-03T09:06:31;4.18;;;1.50;;
79308;SDS011;68767;53.078;7.386;2023-04-03T09:15:27;3.67;;;1.48;;
79308;SDS011;68767;53.078;7.386;2023-04-03T09:23:39;6.30;;;1.60;;
79308;SDS011;68767;53.078;7.386;2023-04-03T09:26:30;8.30;;;2.40;;
79308;SDS011;68767;53.078;7.386;2023-04-03T09:29:06;5.70;;;1.70;;
79308;SDS011;68767;53.078;7.386;2023-04-03T09:31:38;5.15;;;1.60;;
79308;SDS011;68767;53.078;7.386;2023-04-03T09:34:53;2.60;;;1.25;;
79308;SDS011;68767;53.078;7.386;2023-04-03T09:36:58;2.97;;;1.33;;
79308;SDS011;68767;53.078;7.386;2023-04-03T09:39:33;4.95;;;1.40;;
79308;SDS011;68767;53.078;7.386;2023-04-03T09:42:20;3.85;;;1.48;;
79308;SDS011;68767;53.078;7.386;2023-04-03T09:44:54;2.40;;;1.20;;
79308;SDS011;68767;53.078;7.386;2023-04-03T09:47:32;3.72;;;1.20;;
79308;SDS011;68767;53.078;7.386;2023-04-03T09:52:41;6.15;;;1.50;;
79308;SDS011;68767;53.078;7.386;2023-04-03T09:55:19;5.32;;;1.20;;
79308;SDS011;68767;53.078;7.386;2023-04-03T09:58:00;4.30;;;1.55;;
79308;SDS011;68767;53.078;7.386;2023-04-03T10:00:33;4.63;;;1.42;;
79308;SDS011;68767;53.078;7.386;2023-04-03T10:03:05;5.68;;;1.33;;
79308;SDS011;68767;53.078;7.386;2023-04-03T10:05:49;4.40;;;1.67;;
79308;SDS011;68767;53.078;7.386;2023-04-03T10:08:21;2.30;;;0.77;;
79308;SDS011;68767;53.078;7.386;2023-04-03T10:11:08;5.55;;;1.63;;
79308;SDS011;68767;53.078;7.386;2023-04-03T10:13:48;5.20;;;1.30;;
79308;SDS011;68767;53.078;7.386;2023-04-03T10:16:21;3.83;;;1.33;;
79308;SDS011;68767;53.078;7.386;2023-04-03T10:24:03;2.90;;;1.02;;
79308;SDS011;68767;53.078;7.386;2023-04-03T10:37:42;2.97;;;1.23;;
79308;SDS011;68767;53.078;7.386;2023-04-03T10:40:30;0.63;;;0.50;;
79308;SDS011;68767;53.078;7.386;2023-04-03T10:43:04;3.50;;;1.27;;
79308;SDS011;68767;53.078;7.386;2023-04-03T10:51:11;2.95;;;1.33;;
79308;SDS011;68767;53.078;7.386;2023-04-03T10:53:44;4.10;;;1.50;;
79308;SDS011;68767;53.078;7.386;2023-04-03T11:02:25;2.33;;;1.20;;
79308;SDS011;68767;53.078;7.386;2023-04-03T11:05:17;2.92;;;1.30;;
79308;SDS011;68767;53.078;7.386;2023-04-03T11:07:51;4.90;;;1.58;;
79308;SDS011;68767;53.078;7.386;2023-04-03T11:10:24;2.90;;;1.35;;
79308;SDS011;68767;53.078;7.386;2023-04-03T11:13:04;4.40;;;1.40;;
79308;SDS011;68767;53.078;7.386;2023-04-03T11:15:38;4.60;;;1.50;;
79308;SDS011;68767;53.078;7.386;2023-04-03T11:18:08;3.33;;;1.30;;
79308;SDS011;68767;53.078;7.386;2023-04-03T11:20:41;3.75;;;1.27;;
79308;SDS011;68767;53.078;7.386;2023-04-03T11:23:16;4.20;;;1.23;;
79308;SDS011;68767;53.078;7.386;2023-04-03T11:26:01;3.83;;;1.60;;
79308;SDS011;68767;53.078;7.386;2023-04-03T11:28:35;4.63;;;1.40;;
79308;SDS011;68767;53.078;7.386;2023-04-03T11:33:44;3.05;;;1.60;;
79308;SDS011;68767;53.078;7.386;2023-04-03T11:39:02;3.15;;;1.40;;
79308;SDS011;68767;53.078;7.386;2023-04-03T11:41:43;2.92;;;1.17;;
79308;SDS011;68767;53.078;7.386;2023-04-03T11:47:06;4.35;;;1.55;;
79308;SDS011;68767;53.078;7.386;2023-04-03T12:19:02;5.90;;;1.52;;
79308;SDS011;68767;53.078;7.386;2023-04-03T12:29:27;4.40;;;1.40;;
79308;SDS011;68767;53.078;7.386;2023-04-03T12:31:58;3.33;;;1.20;;
79308;SDS011;68767;53.078;7.386;2023-04-03T12:37:32;3.30;;;1.08;;
79308;SDS011;68767;53.078;7.386;2023-04-03T12:45:21;3.55;;;1.50;;
79308;SDS011;68767;53.078;7.386;2023-04-03T12:47:51;5.40;;;1.15;;
79308;SDS011;68767;53.078;7.386;2023-04-03T12:52:52;2.10;;;1.13;;
79308;SDS011;68767;53.078;7.386;2023-04-03T12:55:23;3.60;;;1.38;;
79308;SDS011;68767;53.078;7.386;2023-04-03T12:57:50;3.90;;;1.17;;
79308;SDS011;68767;53.078;7.386;2023-04-03T13:02:48;3.78;;;1.40;;
79308;SDS011;68767;53.078;7.386;2023-04-03T13:05:16;4.47;;;1.30;;
79308;SDS011;68767;53.078;7.386;2023-04-03T13:07:49;4.95;;;0.98;;
79308;SDS011;68767;53.078;7.386;2023-04-03T13:10:23;2.08;;;1.10;;
79308;SDS011;68767;53.078;7.386;2023-04-03T13:12:54;2.70;;;1.27;;
79308;SDS011;68767;53.078;7.386;2023-04-03T13:15:41;5.50;;;1.48;;
79308;SDS011;68767;53.078;7.386;2023-04-03T13:21:13;2.92;;;1.30;;
79308;SDS011;68767;53.078;7.386;2023-04-03T13:23:44;4.72;;;1.70;;
79308;SDS011;68767;53.078;7.386;2023-04-03T13:26:18;3.80;;;1.20;;
79308;SDS011;68767;53.078;7.386;2023-04-03T13:28:48;3.42;;;1.40;;
79308;SDS011;68767;53.078;7.386;2023-04-03T13:31:21;2.15;;;1.13;;
79308;SDS011;68767;53.078;7.386;2023-04-03T13:36:34;3.70;;;1.35;;
79308;SDS011;68767;53.078;7.386;2023-04-03T13:41:40;3.47;;;1.30;;
79308;SDS011;68767;53.078;7.386;2023-04-03T13:46:55;3.88;;;1.38;;
79308;SDS011;68767;53.078;7.386;2023-04-03T13:49:40;2.97;;;1.23;;
79308;SDS011;68767;53.078;7.386;2023-04-03T13:54:45;4.00;;;1.15;;
79308;SDS011;68767;53.078;7.386;2023-04-03T13:57:18;3.33;;;1.20;;
79308;SDS011;68767;53.078;7.386;2023-04-03T13:59:45;2.58;;;1.15;;
79308;SDS011;68767;53.078;7.386;2023-04-03T14:02:14;4.05;;;2.45;;
79308;SDS011;68767;53.078;7.386;2023-04-03T14:04:50;4.25;;;1.30;;
79308;SDS011;68767;53.078;7.386;2023-04-03T14:07:22;6.60;;;1.40;;
79308;SDS011;68767;53.078;7.386;2023-04-03T14:09:50;3.03;;;1.00;;
79308;SDS011;68767;53.078;7.386;2023-04-03T14:12:24;4.93;;;1.45;;
79308;SDS011;68767;53.078;7.386;2023-04-03T14:14:58;4.38;;;1.20;;
79308;SDS011;68767;53.078;7.386;2023-04-03T14:17:28;3.22;;;1.27;;
79308;SDS011;68767;53.078;7.386;2023-04-03T14:19:55;4.78;;;1.60;;
79308;SDS011;68767;53.078;7.386;2023-04-03T14:22:25;2.63;;;1.20;;
79308;SDS011;68767;53.078;7.386;2023-04-03T14:24:57;3.20;;;1.13;;
79308;SDS011;68767;53.078;7.386;2023-04-03T14:27:29;4.90;;;1.30;;
79308;SDS011;68767;53.078;7.386;2023-04-03T14:30:00;2.50;;;1.10;;
79308;SDS011;68767;53.078;7.386;2023-04-03T14:32:29;5.55;;;1.95;;
79308;SDS011;68767;53.078;7.386;2023-04-03T14:34:56;3.80;;;1.33;;
79308;SDS011;68767;53.078;7.386;2023-04-03T14:37:25;3.25;;;1.42;;
79308;SDS011;68767;53.078;7.386;2023-04-03T14:39:56;2.60;;;1.20;;
79308;SDS011;68767;53.078;7.386;2023-04-03T14:42:28;2.67;;;1.25;;
79308;SDS011;68767;53.078;7.386;2023-04-03T14:44:58;4.28;;;1.63;;
79308;SDS011;68767;53.078;7.386;2023-04-03T14:47:27;4.15;;;1.58;;
79308;SDS011;68767;53.078;7.386;2023-04-03T14:50:00;4.72;;;1.75;;
79308;SDS011;68767;53.078;7.386;2023-04-03T14:52:33;2.78;;;1.45;;
79308;SDS011;68767;53.078;7.386;2023-04-03T14:55:03;4.85;;;1.58;;
79308;SDS011;68767;53.078;7.386;2023-04-03T14:57:32;6.03;;;1.50;;
79308;SDS011;68767;53.078;7.386;2023-04-03T15:00:00;2.88;;;1.50;;
79308;SDS011;68767;53.078;7.386;2023-04-03T15:02:35;6.38;;;2.05;;
79308;SDS011;68767;53.078;7.386;2023-04-03T15:05:05;4.13;;;1.38;;
79308;SDS011;68767;53.078;7.386;2023-04-03T15:07:37;3.88;;;1.50;;
79308;SDS011;68767;53.078;7.386;2023-04-03T15:10:16;4.05;;;1.42;;
79308;SDS011;68767;53.078;7.386;2023-04-03T15:12:46;3.50;;;1.48;;
79308;SDS011;68767;53.078;7.386;2023-04-03T15:15:14;3.03;;;1.40;;
79308;SDS011;68767;53.078;7.386;2023-04-03T15:17:43;5.30;;;1.50;;
79308;SDS011;68767;53.078;7.386;2023-04-03T15:20:12;3.80;;;1.75;;
79308;SDS011;68767;53.078;7.386;2023-04-03T15:22:41;3.85;;;1.20;;
79308;SDS011;68767;53.078;7.386;2023-04-03T15:25:08;4.43;;;1.45;;
79308;SDS011;68767;53.078;7.386;2023-04-03T15:27:36;3.95;;;1.50;;
79308;SDS011;68767;53.078;7.386;2023-04-03T15:30:06;5.05;;;1.58;;
79308;SDS011;68767;53.078;7.386;2023-04-03T15:32:37;3.97;;;1.38;;
79308;SDS011;68767;53.078;7.386;2023-04-03T15:35:04;3.75;;;1.60;;
79308;SDS011;68767;53.078;7.386;2023-04-03T15:37:35;4.13;;;1.88;;
79308;SDS011;68767;53.078;7.386;2023-04-03T15:40:03;4.55;;;1.40;;
79308;SDS011;68767;53.078;7.386;2023-04-03T15:42:31;4.93;;;1.50;;
79308;SDS011;68767;53.078;7.386;2023-04-03T15:44:58;4.57;;;1.50;;
79308;SDS011;68767;53.078;7.386;2023-04-03T15:47:25;5.47;;;2.33;;
79308;SDS011;68767;53.078;7.386;2023-04-03T15:49:53;3.28;;;1.50;;
79308;SDS011;68767;53.078;7.386;2023-04-03T15:52:21;5.13;;;1.35;;
79308;SDS011;68767;53.078;7.386;2023-04-03T15:54:48;5.70;;;2.00;;
79308;SDS011;68767;53.078;7.386;2023-04-03T15:57:15;4.07;;;1.40;;
79308;SDS011;68767;53.078;7.386;2023-04-03T15:59:42;5.35;;;2.05;;
79308;SDS011;68767;53.078;7.386;2023-04-03T16:02:09;15.75;;;5.40;;
79308;SDS011;68767;53.078;7.386;2023-04-03T16:04:39;5.10;;;1.83;;
79308;SDS011;68767;53.078;7.386;2023-04-03T16:07:06;15.20;;;6.70;;
79308;SDS011;68767;53.078;7.386;2023-04-03T16:09:33;6.82;;;2.55;;
79308;SDS011;68767;53.078;7.386;2023-04-03T16:12:01;4.78;;;1.85;;
79308;SDS011;68767;53.078;7.386;2023-04-03T16:14:28;4.35;;;1.67;;
79308;SDS011;68767;53.078;7.386;2023-04-03T16:16:56;5.85;;;2.63;;
79308;SDS011;68767;53.078;7.386;2023-04-03T16:19:25;6.60;;;2.90;;
79308;SDS011;68767;53.078;7.386;2023-04-03T16:21:52;3.70;;;1.60;;
79308;SDS011;68767;53.078;7.386;2023-04-03T16:24:20;5.78;;;2.35;;
79308;SDS011;68767;53.078;7.386;2023-04-03T16:26:47;3.90;;;1.65;;
79308;SDS011;68767;53.078;7.386;2023-04-03T16:29:14;4.45;;;1.95;;
79308;SDS011;68767;53.078;7.386;2023-04-03T16:31:41;5.88;;;1.85;;
79308;SDS011;68767;53.078;7.386;2023-04-03T16:34:08;5.32;;;1.70;;
79308;SDS011;68767;53.078;7.386;2023-04-03T16:36:35;4.80;;;1.85;;
79308;SDS011;68767;53.078;7.386;2023-04-03T16:39:03;5.80;;;2.13;;
79308;SDS011;68767;53.078;7.386;2023-04-03T16:41:30;5.75;;;1.85;;
79308;SDS011;68767;53.078;7.386;2023-04-03T16:43:58;6.40;;;2.20;;
79308;SDS011;68767;53.078;7.386;2023-04-03T16:46:25;4.80;;;1.80;;
79308;SDS011;68767;53.078;7.386;2023-04-03T16:48:51;4.40;;;1.83;;
79308;SDS011;68767;53.078;7.386;2023-04-03T16:51:18;13.50;;;2.45;;
79308;SDS011;68767;53.078;7.386;2023-04-03T16:53:45;5.70;;;2.00;;
79308;SDS011;68767;53.078;7.386;2023-04-03T16:56:12;6.38;;;1.80;;
79308;SDS011;68767;53.078;7.386;2023-04-03T16:58:39;4.90;;;1.73;;
79308;SDS011;68767;53.078;7.386;2023-04-03T17:01:10;8.00;;;2.17;;
79308;SDS011;68767;53.078;7.386;2023-04-03T17:03:39;4.43;;;1.40;;
79308;SDS011;68767;53.078;7.386;2023-04-03T17:06:06;3.45;;;1.63;;
79308;SDS011;68767;53.078;7.386;2023-04-03T17:08:33;4.35;;;1.45;;